createdAt,value
2019-02-14T00:00:20.143Z,23.23
2019-02-14T00:02:50.899Z,21.20
2019-02-14T00:05:21.768Z,28.47
2019-02-14T00:07:52.604Z,29.43
2019-02-14T00:10:23.506Z,30.40
2019-02-14T00:12:55.806Z,27.23
2019-02-14T00:15:26.727Z,25.33
2019-02-14T00:17:57.723Z,27.07
2019-02-14T00:20:28.659Z,28.17
2019-02-14T00:22:59.524Z,25.23
2019-02-14T00:25:30.508Z,31.63
2019-02-14T00:28:01.988Z,29.60
2019-02-14T00:30:32.843Z,31.77
2019-02-14T00:33:04.124Z,30.47
2019-02-14T00:35:35.086Z,38.77
2019-02-14T00:38:05.903Z,28.00
2019-02-14T00:40:36.694Z,25.27
2019-02-14T00:43:07.572Z,28.17
2019-02-14T00:45:38.568Z,32.00
2019-02-14T00:48:09.377Z,30.10
2019-02-14T00:50:40.480Z,34.53
2019-02-14T00:53:11.388Z,34.87
2019-02-14T00:55:42.178Z,29.00
2019-02-14T01:13:12.478Z,31.13
2019-02-14T01:15:43.838Z,36.20
2019-02-14T01:18:14.669Z,35.63
2019-02-14T01:20:45.613Z,38.28
2019-02-14T01:23:16.471Z,33.45
2019-02-14T01:25:47.338Z,32.13
2019-02-14T01:28:18.399Z,32.60
2019-02-14T01:30:49.263Z,33.58
2019-02-14T01:33:21.426Z,33.83
2019-02-14T01:35:52.668Z,35.75
2019-02-14T01:38:24.034Z,35.78
2019-02-14T01:40:54.914Z,38.90
2019-02-14T01:43:25.788Z,35.10
2019-02-14T01:45:56.714Z,37.55
2019-02-14T01:48:27.662Z,39.27
2019-02-14T01:50:58.576Z,37.80
2019-02-14T01:53:29.431Z,41.80
2019-02-14T01:56:00.427Z,40.43
2019-02-14T01:58:31.402Z,39.38
2019-02-14T02:01:02.351Z,43.08
2019-02-14T02:03:33.227Z,38.93
2019-02-14T02:06:04.103Z,36.33
2019-02-14T02:08:34.882Z,38.67
2019-02-14T02:11:06.545Z,37.40
2019-02-14T02:13:37.288Z,39.75
2019-02-14T02:16:08.268Z,44.27
2019-02-14T02:18:40.038Z,44.73
2019-02-14T02:21:10.891Z,41.40
2019-02-14T02:23:42.032Z,40.78
2019-02-14T02:26:13.033Z,36.50
2019-02-14T02:28:43.942Z,39.67
2019-02-14T02:31:14.733Z,38.95
2019-02-14T02:33:45.471Z,38.48
2019-02-14T02:36:16.389Z,41.43
2019-02-14T02:38:47.568Z,37.67
2019-02-14T02:41:18.614Z,40.15
2019-02-14T02:43:49.852Z,38.73
2019-02-14T02:46:20.828Z,46.48
2019-02-14T02:48:53.308Z,38.75
2019-02-14T02:51:24.409Z,42.43
2019-02-14T02:53:58.934Z,41.75
2019-02-14T02:56:31.689Z,44.10
2019-02-14T02:59:05.098Z,36.95
2019-02-14T03:01:38.650Z,42.98
2019-02-14T03:04:10.875Z,47.88
2019-02-14T03:06:41.938Z,42.95
2019-02-14T03:09:16.289Z,44.08
2019-02-14T03:11:52.628Z,40.73
2019-02-14T03:14:24.054Z,39.27
2019-02-14T03:16:56.975Z,41.42
2019-02-14T03:19:28.413Z,38.73
2019-02-14T03:22:04.129Z,42.43
2019-02-14T03:24:36.826Z,42.85
2019-02-14T03:27:16.898Z,43.42
2019-02-14T03:29:52.634Z,37.95
2019-02-14T03:32:29.403Z,46.33
2019-02-14T03:35:05.654Z,39.63
2019-02-14T03:37:40.383Z,40.03
2019-02-14T03:40:16.632Z,41.25
2019-02-14T03:42:48.574Z,41.63
2019-02-14T03:45:19.777Z,41.63
2019-02-14T03:47:51.365Z,45.40
2019-02-14T03:50:25.058Z,37.08
